sensor_id;sensor_type;location;lat;lon;timestamp;temperature;humidity
21171;DHT22;10743;52.160;20.910;2022-11-20T00:01:30;15.50;27.80
21171;DHT22;10743;52.160;20.910;2022-11-20T00:03:58;15.50;28.10
21171;DHT22;10743;52.160;20.910;2022-11-20T00:06:26;15.40;27.90
21171;DHT22;10743;52.160;20.910;2022-11-20T00:08:55;15.50;28.00
21171;DHT22;10743;52.160;20.910;2022-11-20T00:11:24;15.40;28.00
21171;DHT22;10743;52.160;20.910;2022-11-20T00:13:54;15.50;28.00
21171;DHT22;10743;52.160;20.910;2022-11-20T00:16:25;15.50;28.00
21171;DHT22;10743;52.160;20.910;2022-11-20T00:18:54;15.50;28.00
21171;DHT22;10743;52.160;20.910;2022-11-20T00:21:25;15.50;28.00
21171;DHT22;10743;52.160;20.910;2022-11-20T00:23:54;15.50;27.90
21171;DHT22;10743;52.160;20.910;2022-11-20T00:26:24;15.50;28.00
21171;DHT22;10743;52.160;20.910;2022-11-20T00:28:56;15.60;28.00
21171;DHT22;10743;52.160;20.910;2022-11-20T00:31:25;15.60;28.00
21171;DHT22;10743;52.160;20.910;2022-11-20T00:33:52;15.70;28.50
21171;DHT22;10743;52.160;20.910;2022-11-20T00:36:21;15.70;27.90
21171;DHT22;10743;52.160;20.910;2022-11-20T00:38:57;15.70;27.90
21171;DHT22;10743;52.160;20.910;2022-11-20T00:41:25;15.70;28.00
21171;DHT22;10743;52.160;20.910;2022-11-20T00:43:54;15.70;27.90
21171;DHT22;10743;52.160;20.910;2022-11-20T00:46:23;15.70;28.00
21171;DHT22;10743;52.160;20.910;2022-11-20T00:48:51;15.70;28.00
21171;DHT22;10743;52.160;20.910;2022-11-20T00:51:21;15.70;28.00
21171;DHT22;10743;52.160;20.910;2022-11-20T00:53:49;15.80;27.90
21171;DHT22;10743;52.160;20.910;2022-11-20T00:56:17;15.90;27.80
21171;DHT22;10743;52.160;20.910;2022-11-20T00:58:46;15.90;27.80
21171;DHT22;10743;52.160;20.910;2022-11-20T01:01:17;15.90;27.80
21171;DHT22;10743;52.160;20.910;2022-11-20T01:03:48;15.90;27.70
21171;DHT22;10743;52.160;20.910;2022-11-20T01:06:22;15.90;27.80
21171;DHT22;10743;52.160;20.910;2022-11-20T01:08:53;15.90;27.80
21171;DHT22;10743;52.160;20.910;2022-11-20T01:11:29;15.80;27.80
21171;DHT22;10743;52.160;20.910;2022-11-20T01:13:58;15.90;27.90
21171;DHT22;10743;52.160;20.910;2022-11-20T01:16:35;15.90;27.80
21171;DHT22;10743;52.160;20.910;2022-11-20T01:19:05;15.90;27.80
21171;DHT22;10743;52.160;20.910;2022-11-20T01:21:38;15.80;27.80
21171;DHT22;10743;52.160;20.910;2022-11-20T01:24:07;15.80;27.80
21171;DHT22;10743;52.160;20.910;2022-11-20T01:26:38;15.70;27.90
21171;DHT22;10743;52.160;20.910;2022-11-20T01:29:07;15.80;28.00
21171;DHT22;10743;52.160;20.910;2022-11-20T01:31:36;15.70;27.90
21171;DHT22;10743;52.160;20.910;2022-11-20T01:34:06;15.70;28.10
21171;DHT22;10743;52.160;20.910;2022-11-20T01:36:36;15.70;28.10
21171;DHT22;10743;52.160;20.910;2022-11-20T01:39:06;15.70;28.10
21171;DHT22;10743;52.160;20.910;2022-11-20T01:41:36;15.60;28.10
21171;DHT22;10743;52.160;20.910;2022-11-20T01:44:54;15.70;28.10
21171;DHT22;10743;52.160;20.910;2022-11-20T01:47:33;15.70;28.10
21171;DHT22;10743;52.160;20.910;2022-11-20T01:50:25;15.80;28.50
21171;DHT22;10743;52.160;20.910;2022-11-20T01:52:59;15.80;27.90
21171;DHT22;10743;52.160;20.910;2022-11-20T01:55:32;15.90;27.90
21171;DHT22;10743;52.160;20.910;2022-11-20T01:58:04;15.90;27.80
21171;DHT22;10743;52.160;20.910;2022-11-20T02:00:31;15.90;27.90
21171;DHT22;10743;52.160;20.910;2022-11-20T02:03:01;15.90;27.90
21171;DHT22;10743;52.160;20.910;2022-11-20T02:05:38;15.90;27.90
21171;DHT22;10743;52.160;20.910;2022-11-20T02:08:08;15.80;28.00
21171;DHT22;10743;52.160;20.910;2022-11-20T02:10:35;15.80;28.00
21171;DHT22;10743;52.160;20.910;2022-11-20T02:13:03;15.90;28.00
21171;DHT22;10743;52.160;20.910;2022-11-20T02:15:49;15.80;28.00
21171;DHT22;10743;52.160;20.910;2022-11-20T02:18:18;15.80;28.00
21171;DHT22;10743;52.160;20.910;2022-11-20T02:20:48;15.80;28.00
21171;DHT22;10743;52.160;20.910;2022-11-20T02:23:20;15.80;28.10
21171;DHT22;10743;52.160;20.910;2022-11-20T02:25:55;15.90;28.00
21171;DHT22;10743;52.160;20.910;2022-11-20T02:28:22;15.90;28.10
21171;DHT22;10743;52.160;20.910;2022-11-20T02:30:49;15.80;28.10
21171;DHT22;10743;52.160;20.910;2022-11-20T02:33:16;15.80;28.30
21171;DHT22;10743;52.160;20.910;2022-11-20T02:35:45;15.80;28.30
21171;DHT22;10743;52.160;20.910;2022-11-20T02:38:14;15.80;28.30
21171;DHT22;10743;52.160;20.910;2022-11-20T02:40:41;15.80;28.30
21171;DHT22;10743;52.160;20.910;2022-11-20T02:43:08;15.80;28.30
21171;DHT22;10743;52.160;20.910;2022-11-20T02:45:36;15.90;28.30
21171;DHT22;10743;52.160;20.910;2022-11-20T02:48:03;15.90;28.30
21171;DHT22;10743;52.160;20.910;2022-11-20T02:50:30;15.90;28.40
21171;DHT22;10743;52.160;20.910;2022-11-20T02:52:57;15.90;28.40
21171;DHT22;10743;52.160;20.910;2022-11-20T02:55:24;15.90;28.40
21171;DHT22;10743;52.160;20.910;2022-11-20T02:57:51;15.90;28.40
21171;DHT22;10743;52.160;20.910;2022-11-20T03:00:18;15.90;28.50
21171;DHT22;10743;52.160;20.910;2022-11-20T03:02:45;15.90;28.50
21171;DHT22;10743;52.160;20.910;2022-11-20T03:05:12;15.90;28.50
21171;DHT22;10743;52.160;20.910;2022-11-20T03:07:39;15.90;28.50
21171;DHT22;10743;52.160;20.910;2022-11-20T03:10:07;15.90;28.40
21171;DHT22;10743;52.160;20.910;2022-11-20T03:12:34;15.90;28.40
21171;DHT22;10743;52.160;20.910;2022-11-20T03:15:01;15.90;28.50
21171;DHT22;10743;52.160;20.910;2022-11-20T03:17:28;15.90;28.50
21171;DHT22;10743;52.160;20.910;2022-11-20T03:19:56;15.90;28.50
21171;DHT22;10743;52.160;20.910;2022-11-20T03:22:23;15.90;28.50
21171;DHT22;10743;52.160;20.910;2022-11-20T03:24:50;15.90;28.50
21171;DHT22;10743;52.160;20.910;2022-11-20T03:27:17;15.80;28.60
21171;DHT22;10743;52.160;20.910;2022-11-20T03:29:44;15.80;28.60
21171;DHT22;10743;52.160;20.910;2022-11-20T03:32:11;15.80;28.70
21171;DHT22;10743;52.160;20.910;2022-11-20T03:34:38;15.80;28.70
21171;DHT22;10743;52.160;20.910;2022-11-20T03:37:05;15.80;29.20
21171;DHT22;10743;52.160;20.910;2022-11-20T03:39:32;15.80;28.70
21171;DHT22;10743;52.160;20.910;2022-11-20T03:41:59;15.80;28.70
21171;DHT22;10743;52.160;20.910;2022-11-20T03:44:26;15.80;28.70
21171;DHT22;10743;52.160;20.910;2022-11-20T03:46:53;15.80;28.70
21171;DHT22;10743;52.160;20.910;2022-11-20T03:49:20;15.80;28.60
21171;DHT22;10743;52.160;20.910;2022-11-20T03:51:47;15.70;28.70
21171;DHT22;10743;52.160;20.910;2022-11-20T03:54:14;15.70;28.80
21171;DHT22;10743;52.160;20.910;2022-11-20T03:56:41;15.70;28.70
21171;DHT22;10743;52.160;20.910;2022-11-20T03:59:10;15.70;28.70
21171;DHT22;10743;52.160;20.910;2022-11-20T04:01:37;15.60;28.70
21171;DHT22;10743;52.160;20.910;2022-11-20T04:04:04;15.60;28.60
21171;DHT22;10743;52.160;20.910;2022-11-20T04:06:36;15.60;28.70
21171;DHT22;10743;52.160;20.910;2022-11-20T04:09:04;15.50;28.70
21171;DHT22;10743;52.160;20.910;2022-11-20T04:11:36;15.50;28.60
21171;DHT22;10743;52.160;20.910;2022-11-20T04:14:05;15.50;28.70
21171;DHT22;10743;52.160;20.910;2022-11-20T04:16:36;15.50;28.70
21171;DHT22;10743;52.160;20.910;2022-11-20T04:19:05;15.50;28.70
21171;DHT22;10743;52.160;20.910;2022-11-20T04:21:35;15.50;28.70
21171;DHT22;10743;52.160;20.910;2022-11-20T04:24:03;15.40;28.70
21171;DHT22;10743;52.160;20.910;2022-11-20T04:26:30;15.50;28.70
21171;DHT22;10743;52.160;20.910;2022-11-20T04:28:58;15.50;28.70
21171;DHT22;10743;52.160;20.910;2022-11-20T04:31:29;15.40;28.60
21171;DHT22;10743;52.160;20.910;2022-11-20T04:34:02;15.40;28.70
21171;DHT22;10743;52.160;20.910;2022-11-20T04:36:31;15.40;28.70
21171;DHT22;10743;52.160;20.910;2022-11-20T04:38:59;15.40;28.80
21171;DHT22;10743;52.160;20.910;2022-11-20T04:41:32;15.30;28.80
21171;DHT22;10743;52.160;20.910;2022-11-20T04:44:02;15.20;28.80
21171;DHT22;10743;52.160;20.910;2022-11-20T04:46:36;15.20;28.90
21171;DHT22;10743;52.160;20.910;2022-11-20T04:49:05;15.20;28.90
21171;DHT22;10743;52.160;20.910;2022-11-20T04:51:32;15.10;29.00
21171;DHT22;10743;52.160;20.910;2022-11-20T04:54:00;15.10;29.00
21171;DHT22;10743;52.160;20.910;2022-11-20T04:56:27;15.00;29.10
21171;DHT22;10743;52.160;20.910;2022-11-20T04:58:54;15.10;29.10
21171;DHT22;10743;52.160;20.910;2022-11-20T05:01:23;15.00;29.10
21171;DHT22;10743;52.160;20.910;2022-11-20T05:03:51;15.10;29.10
21171;DHT22;10743;52.160;20.910;2022-11-20T05:06:21;15.00;29.10
21171;DHT22;10743;52.160;20.910;2022-11-20T05:08:49;15.00;29.20
21171;DHT22;10743;52.160;20.910;2022-11-20T05:11:19;15.00;29.30
21171;DHT22;10743;52.160;20.910;2022-11-20T05:13:47;15.00;29.30
21171;DHT22;10743;52.160;20.910;2022-11-20T05:16:25;15.00;29.30
21171;DHT22;10743;52.160;20.910;2022-11-20T05:18:53;15.00;29.30
21171;DHT22;10743;52.160;20.910;2022-11-20T05:21:20;15.00;29.20
21171;DHT22;10743;52.160;20.910;2022-11-20T05:23:48;15.00;29.20
21171;DHT22;10743;52.160;20.910;2022-11-20T05:26:21;15.00;29.20
21171;DHT22;10743;52.160;20.910;2022-11-20T05:28:49;14.90;29.10
21171;DHT22;10743;52.160;20.910;2022-11-20T05:31:22;15.00;29.20
21171;DHT22;10743;52.160;20.910;2022-11-20T05:33:54;14.90;29.20
21171;DHT22;10743;52.160;20.910;2022-11-20T05:36:23;14.90;29.20
21171;DHT22;10743;52.160;20.910;2022-11-20T05:38:50;14.90;29.10
21171;DHT22;10743;52.160;20.910;2022-11-20T05:41:23;14.90;29.10
21171;DHT22;10743;52.160;20.910;2022-11-20T05:43:51;14.90;29.10
21171;DHT22;10743;52.160;20.910;2022-11-20T05:46:19;14.80;29.10
21171;DHT22;10743;52.160;20.910;2022-11-20T05:48:53;14.90;29.10
21171;DHT22;10743;52.160;20.910;2022-11-20T05:51:20;14.80;29.10
21171;DHT22;10743;52.160;20.910;2022-11-20T05:53:47;14.80;29.10
21171;DHT22;10743;52.160;20.910;2022-11-20T05:56:17;14.80;29.10
21171;DHT22;10743;52.160;20.910;2022-11-20T05:58:45;14.80;29.10
21171;DHT22;10743;52.160;20.910;2022-11-20T06:01:21;14.70;29.10
21171;DHT22;10743;52.160;20.910;2022-11-20T06:03:50;14.70;29.10
21171;DHT22;10743;52.160;20.910;2022-11-20T06:06:18;14.70;29.10
21171;DHT22;10743;52.160;20.910;2022-11-20T06:08:46;14.70;29.10
21171;DHT22;10743;52.160;20.910;2022-11-20T06:11:14;14.70;29.10
21171;DHT22;10743;52.160;20.910;2022-11-20T06:13:41;14.70;29.20
21171;DHT22;10743;52.160;20.910;2022-11-20T06:16:09;14.60;29.10
21171;DHT22;10743;52.160;20.910;2022-11-20T06:18:38;14.60;29.20
21171;DHT22;10743;52.160;20.910;2022-11-20T06:21:17;14.60;29.20
21171;DHT22;10743;52.160;20.910;2022-11-20T06:23:45;14.60;29.20
21171;DHT22;10743;52.160;20.910;2022-11-20T06:26:18;14.60;29.20
21171;DHT22;10743;52.160;20.910;2022-11-20T06:28:46;14.60;29.20
21171;DHT22;10743;52.160;20.910;2022-11-20T06:31:15;14.60;29.10
21171;DHT22;10743;52.160;20.910;2022-11-20T06:33:43;14.60;29.00
21171;DHT22;10743;52.160;20.910;2022-11-20T06:36:13;14.60;29.10
21171;DHT22;10743;52.160;20.910;2022-11-20T06:38:42;14.60;29.10
21171;DHT22;10743;52.160;20.910;2022-11-20T06:41:14;14.60;29.10
21171;DHT22;10743;52.160;20.910;2022-11-20T06:43:43;14.60;29.10
21171;DHT22;10743;52.160;20.910;2022-11-20T06:46:11;14.60;29.10
21171;DHT22;10743;52.160;20.910;2022-11-20T06:48:39;14.60;29.10
21171;DHT22;10743;52.160;20.910;2022-11-20T06:51:07;14.50;29.20
21171;DHT22;10743;52.160;20.910;2022-11-20T06:53:34;14.60;29.20
21171;DHT22;10743;52.160;20.910;2022-11-20T06:56:02;14.60;29.30
21171;DHT22;10743;52.160;20.910;2022-11-20T06:58:31;14.60;29.10
21171;DHT22;10743;52.160;20.910;2022-11-20T07:00:59;14.60;29.10
21171;DHT22;10743;52.160;20.910;2022-11-20T07:03:37;14.70;29.10
21171;DHT22;10743;52.160;20.910;2022-11-20T07:06:05;14.70;29.10
21171;DHT22;10743;52.160;20.910;2022-11-20T07:08:32;14.60;29.10
21171;DHT22;10743;52.160;20.910;2022-11-20T07:11:05;14.70;29.20
21171;DHT22;10743;52.160;20.910;2022-11-20T07:13:33;14.70;29.10
21171;DHT22;10743;52.160;20.910;2022-11-20T07:16:05;14.70;29.10
21171;DHT22;10743;52.160;20.910;2022-11-20T07:18:34;14.80;29.40
21171;DHT22;10743;52.160;20.910;2022-11-20T07:21:06;14.80;29.00
21171;DHT22;10743;52.160;20.910;2022-11-20T07:23:35;14.80;29.00
21171;DHT22;10743;52.160;20.910;2022-11-20T07:26:04;14.70;29.10
21171;DHT22;10743;52.160;20.910;2022-11-20T07:28:31;14.60;29.20
21171;DHT22;10743;52.160;20.910;2022-11-20T07:30:58;14.60;29.30
21171;DHT22;10743;52.160;20.910;2022-11-20T07:33:26;14.60;29.30
21171;DHT22;10743;52.160;20.910;2022-11-20T07:35:53;14.50;29.50
21171;DHT22;10743;52.160;20.910;2022-11-20T07:38:19;14.50;29.40
21171;DHT22;10743;52.160;20.910;2022-11-20T07:40:46;14.50;29.40
21171;DHT22;10743;52.160;20.910;2022-11-20T07:43:13;14.40;29.60
21171;DHT22;10743;52.160;20.910;2022-11-20T07:45:41;14.40;29.70
21171;DHT22;10743;52.160;20.910;2022-11-20T07:48:08;14.40;29.70
21171;DHT22;10743;52.160;20.910;2022-11-20T07:50:35;14.30;29.90
21171;DHT22;10743;52.160;20.910;2022-11-20T07:53:03;14.30;30.00
21171;DHT22;10743;52.160;20.910;2022-11-20T07:55:31;14.30;30.00
21171;DHT22;10743;52.160;20.910;2022-11-20T07:57:59;14.30;30.00
21171;DHT22;10743;52.160;20.910;2022-11-20T08:00:26;14.30;30.00
21171;DHT22;10743;52.160;20.910;2022-11-20T08:02:54;14.30;30.20
21171;DHT22;10743;52.160;20.910;2022-11-20T08:05:21;14.40;30.10
21171;DHT22;10743;52.160;20.910;2022-11-20T08:07:48;14.40;30.20
21171;DHT22;10743;52.160;20.910;2022-11-20T08:10:15;14.40;30.10
21171;DHT22;10743;52.160;20.910;2022-11-20T08:12:50;14.40;30.20
21171;DHT22;10743;52.160;20.910;2022-11-20T08:15:38;14.50;30.10
21171;DHT22;10743;52.160;20.910;2022-11-20T08:18:08;14.50;30.00
21171;DHT22;10743;52.160;20.910;2022-11-20T08:21:02;14.60;30.00
21171;DHT22;10743;52.160;20.910;2022-11-20T08:23:30;14.60;30.20
21171;DHT22;10743;52.160;20.910;2022-11-20T08:25:57;14.60;30.10
21171;DHT22;10743;52.160;20.910;2022-11-20T08:28:24;14.60;30.20
21171;DHT22;10743;52.160;20.910;2022-11-20T08:30:51;14.70;30.20
21171;DHT22;10743;52.160;20.910;2022-11-20T08:33:18;14.70;30.30
21171;DHT22;10743;52.160;20.910;2022-11-20T08:35:45;14.70;30.40
21171;DHT22;10743;52.160;20.910;2022-11-20T08:38:12;14.80;30.30
21171;DHT22;10743;52.160;20.910;2022-11-20T08:40:39;14.90;30.20
21171;DHT22;10743;52.160;20.910;2022-11-20T08:43:06;14.90;30.00
21171;DHT22;10743;52.160;20.910;2022-11-20T08:45:33;14.90;30.10
21171;DHT22;10743;52.160;20.910;2022-11-20T08:48:02;14.90;30.30
21171;DHT22;10743;52.160;20.910;2022-11-20T08:50:30;15.00;30.30
21171;DHT22;10743;52.160;20.910;2022-11-20T08:53:06;15.00;30.10
21171;DHT22;10743;52.160;20.910;2022-11-20T08:55:33;15.10;30.40
21171;DHT22;10743;52.160;20.910;2022-11-20T08:58:06;15.10;30.40
21171;DHT22;10743;52.160;20.910;2022-11-20T09:00:33;15.20;31.00
21171;DHT22;10743;52.160;20.910;2022-11-20T09:03:01;15.20;30.40
21171;DHT22;10743;52.160;20.910;2022-11-20T09:05:28;15.30;30.10
21171;DHT22;10743;52.160;20.910;2022-11-20T09:07:56;15.30;30.20
21171;DHT22;10743;52.160;20.910;2022-11-20T09:10:23;15.30;30.20
21171;DHT22;10743;52.160;20.910;2022-11-20T09:12:52;15.40;30.40
21171;DHT22;10743;52.160;20.910;2022-11-20T09:15:19;15.50;30.30
21171;DHT22;10743;52.160;20.910;2022-11-20T09:18:01;15.50;30.30
21171;DHT22;10743;52.160;20.910;2022-11-20T09:20:30;15.50;30.40
21171;DHT22;10743;52.160;20.910;2022-11-20T09:22:58;15.70;30.10
21171;DHT22;10743;52.160;20.910;2022-11-20T09:25:25;15.70;30.10
21171;DHT22;10743;52.160;20.910;2022-11-20T09:27:59;15.70;30.20
21171;DHT22;10743;52.160;20.910;2022-11-20T09:30:26;15.70;30.00
21171;DHT22;10743;52.160;20.910;2022-11-20T09:32:54;15.80;30.00
21171;DHT22;10743;52.160;20.910;2022-11-20T09:35:21;15.80;30.20
21171;DHT22;10743;52.160;20.910;2022-11-20T09:37:48;16.00;30.10
21171;DHT22;10743;52.160;20.910;2022-11-20T09:40:28;16.10;30.10
21171;DHT22;10743;52.160;20.910;2022-11-20T09:46:01;16.30;29.90
21171;DHT22;10743;52.160;20.910;2022-11-20T09:48:48;16.40;29.80
21171;DHT22;10743;52.160;20.910;2022-11-20T09:51:47;16.50;29.70
21171;DHT22;10743;52.160;20.910;2022-11-20T09:54:22;16.60;29.70
21171;DHT22;10743;52.160;20.910;2022-11-20T09:57:15;16.70;29.70
21171;DHT22;10743;52.160;20.910;2022-11-20T09:59:56;16.70;29.60
21171;DHT22;10743;52.160;20.910;2022-11-20T10:05:25;16.90;29.80
21171;DHT22;10743;52.160;20.910;2022-11-20T10:08:21;17.00;29.70
21171;DHT22;10743;52.160;20.910;2022-11-20T10:11:13;17.10;29.70
21171;DHT22;10743;52.160;20.910;2022-11-20T10:14:07;17.20;29.50
21171;DHT22;10743;52.160;20.910;2022-11-20T10:20:17;17.30;29.40
21171;DHT22;10743;52.160;20.910;2022-11-20T10:31:34;17.60;29.30
21171;DHT22;10743;52.160;20.910;2022-11-20T10:34:18;17.70;29.20
21171;DHT22;10743;52.160;20.910;2022-11-20T10:37:09;17.70;29.30
21171;DHT22;10743;52.160;20.910;2022-11-20T10:40:00;17.80;29.00
21171;DHT22;10743;52.160;20.910;2022-11-20T10:50:36;18.00;28.90
21171;DHT22;10743;52.160;20.910;2022-11-20T10:56:07;18.00;28.80
21171;DHT22;10743;52.160;20.910;2022-11-20T10:59:02;18.10;28.80
21171;DHT22;10743;52.160;20.910;2022-11-20T11:01:41;18.10;28.80
21171;DHT22;10743;52.160;20.910;2022-11-20T11:07:10;18.20;28.40
21171;DHT22;10743;52.160;20.910;2022-11-20T11:09:49;18.20;28.50
21171;DHT22;10743;52.160;20.910;2022-11-20T11:12:17;18.20;28.50
21171;DHT22;10743;52.160;20.910;2022-11-20T11:14:50;18.30;28.60
21171;DHT22;10743;52.160;20.910;2022-11-20T11:17:29;18.30;28.60
21171;DHT22;10743;52.160;20.910;2022-11-20T11:22:47;18.30;28.30
21171;DHT22;10743;52.160;20.910;2022-11-20T11:27:53;18.30;28.40
21171;DHT22;10743;52.160;20.910;2022-11-20T11:30:25;18.30;28.60
21171;DHT22;10743;52.160;20.910;2022-11-20T11:33:08;18.30;28.50
21171;DHT22;10743;52.160;20.910;2022-11-20T11:36:00;18.40;28.40
21171;DHT22;10743;52.160;20.910;2022-11-20T11:38:38;18.40;28.40
21171;DHT22;10743;52.160;20.910;2022-11-20T11:41:09;18.40;28.40
21171;DHT22;10743;52.160;20.910;2022-11-20T11:43:51;18.50;28.30
21171;DHT22;10743;52.160;20.910;2022-11-20T11:46:40;18.50;28.20
21171;DHT22;10743;52.160;20.910;2022-11-20T11:49:18;18.60;28.10
21171;DHT22;10743;52.160;20.910;2022-11-20T11:52:04;18.50;28.20
21171;DHT22;10743;52.160;20.910;2022-11-20T11:54:53;18.50;28.40
21171;DHT22;10743;52.160;20.910;2022-11-20T11:57:33;18.50;28.40
21171;DHT22;10743;52.160;20.910;2022-11-20T12:00:16;18.50;28.20
21171;DHT22;10743;52.160;20.910;2022-11-20T12:05:23;18.50;28.40
21171;DHT22;10743;52.160;20.910;2022-11-20T12:08:02;18.50;28.50
21171;DHT22;10743;52.160;20.910;2022-11-20T12:11:06;18.50;28.30
21171;DHT22;10743;52.160;20.910;2022-11-20T12:13:53;18.50;28.40
21171;DHT22;10743;52.160;20.910;2022-11-20T12:16:22;18.50;28.30
21171;DHT22;10743;52.160;20.910;2022-11-20T12:18:51;18.60;28.30
21171;DHT22;10743;52.160;20.910;2022-11-20T12:21:31;18.60;28.30
21171;DHT22;10743;52.160;20.910;2022-11-20T12:24:29;18.60;28.40
21171;DHT22;10743;52.160;20.910;2022-11-20T12:30:14;18.60;28.10
21171;DHT22;10743;52.160;20.910;2022-11-20T12:42:29;18.60;28.30
21171;DHT22;10743;52.160;20.910;2022-11-20T12:45:46;18.60;28.30
21171;DHT22;10743;52.160;20.910;2022-11-20T12:51:51;18.60;28.30
21171;DHT22;10743;52.160;20.910;2022-11-20T12:54:36;18.60;28.00
21171;DHT22;10743;52.160;20.910;2022-11-20T12:57:49;18.70;28.00
21171;DHT22;10743;52.160;20.910;2022-11-20T13:00:21;18.70;28.00
21171;DHT22;10743;52.160;20.910;2022-11-20T13:03:06;18.60;28.00
21171;DHT22;10743;52.160;20.910;2022-11-20T13:08:54;18.60;28.10
21171;DHT22;10743;52.160;20.910;2022-11-20T13:11:40;18.50;28.20
21171;DHT22;10743;52.160;20.910;2022-11-20T13:14:36;18.50;28.10
21171;DHT22;10743;52.160;20.910;2022-11-20T13:20:00;18.40;28.20
21171;DHT22;10743;52.160;20.910;2022-11-20T13:22:47;18.40;28.30
21171;DHT22;10743;52.160;20.910;2022-11-20T13:25:23;18.40;28.40
21171;DHT22;10743;52.160;20.910;2022-11-20T13:30:37;18.40;28.50
21171;DHT22;10743;52.160;20.910;2022-11-20T13:33:31;18.40;28.50
21171;DHT22;10743;52.160;20.910;2022-11-20T13:36:06;18.40;28.60
21171;DHT22;10743;52.160;20.910;2022-11-20T13:38:48;18.30;28.60
21171;DHT22;10743;52.160;20.910;2022-11-20T13:41:31;18.40;28.60
21171;DHT22;10743;52.160;20.910;2022-11-20T13:44:20;18.40;28.60
21171;DHT22;10743;52.160;20.910;2022-11-20T13:46:50;18.30;28.60
21171;DHT22;10743;52.160;20.910;2022-11-20T13:49:28;18.30;28.70
21171;DHT22;10743;52.160;20.910;2022-11-20T13:52:29;18.30;28.60
21171;DHT22;10743;52.160;20.910;2022-11-20T13:55:16;18.40;28.60
21171;DHT22;10743;52.160;20.910;2022-11-20T14:01:11;18.30;28.70
21171;DHT22;10743;52.160;20.910;2022-11-20T14:03:43;18.20;28.80
21171;DHT22;10743;52.160;20.910;2022-11-20T14:06:32;18.20;28.80
21171;DHT22;10743;52.160;20.910;2022-11-20T14:09:01;18.20;28.90
21171;DHT22;10743;52.160;20.910;2022-11-20T14:11:29;18.20;29.00
21171;DHT22;10743;52.160;20.910;2022-11-20T14:14:13;18.20;29.00
21171;DHT22;10743;52.160;20.910;2022-11-20T14:16:42;18.10;29.10
21171;DHT22;10743;52.160;20.910;2022-11-20T14:21:53;18.00;29.30
21171;DHT22;10743;52.160;20.910;2022-11-20T14:24:23;18.00;29.30
21171;DHT22;10743;52.160;20.910;2022-11-20T14:26:51;18.00;29.30
21171;DHT22;10743;52.160;20.910;2022-11-20T14:29:29;17.90;29.40
21171;DHT22;10743;52.160;20.910;2022-11-20T14:32:01;17.90;29.50
21171;DHT22;10743;52.160;20.910;2022-11-20T14:34:31;17.90;29.60
21171;DHT22;10743;52.160;20.910;2022-11-20T14:37:01;17.90;29.50
21171;DHT22;10743;52.160;20.910;2022-11-20T14:39:35;17.80;29.60
21171;DHT22;10743;52.160;20.910;2022-11-20T14:42:15;17.80;29.70
21171;DHT22;10743;52.160;20.910;2022-11-20T14:44:43;17.80;29.70
21171;DHT22;10743;52.160;20.910;2022-11-20T14:47:18;17.80;29.80
21171;DHT22;10743;52.160;20.910;2022-11-20T14:49:49;17.80;29.80
21171;DHT22;10743;52.160;20.910;2022-11-20T14:52:25;17.80;29.80
21171;DHT22;10743;52.160;20.910;2022-11-20T14:54:57;17.80;29.90
21171;DHT22;10743;52.160;20.910;2022-11-20T14:57:32;17.80;30.00
21171;DHT22;10743;52.160;20.910;2022-11-20T15:00:20;17.80;30.10
21171;DHT22;10743;52.160;20.910;2022-11-20T15:02:49;17.80;30.20
21171;DHT22;10743;52.160;20.910;2022-11-20T15:05:19;17.80;30.40
21171;DHT22;10743;52.160;20.910;2022-11-20T15:08:03;17.80;30.40
21171;DHT22;10743;52.160;20.910;2022-11-20T15:10:32;17.80;30.60
21171;DHT22;10743;52.160;20.910;2022-11-20T15:13:03;17.70;30.70
21171;DHT22;10743;52.160;20.910;2022-11-20T15:15:47;17.70;30.70
21171;DHT22;10743;52.160;20.910;2022-11-20T15:18:18;17.70;30.90
21171;DHT22;10743;52.160;20.910;2022-11-20T15:20:47;17.70;30.90
21171;DHT22;10743;52.160;20.910;2022-11-20T15:23:16;17.70;31.10
21171;DHT22;10743;52.160;20.910;2022-11-20T15:25:48;17.60;31.00
21171;DHT22;10743;52.160;20.910;2022-11-20T15:28:33;17.60;31.10
21171;DHT22;10743;52.160;20.910;2022-11-20T15:31:02;17.60;31.10
21171;DHT22;10743;52.160;20.910;2022-11-20T15:33:31;17.60;31.10
21171;DHT22;10743;52.160;20.910;2022-11-20T15:35:58;17.50;31.00
21171;DHT22;10743;52.160;20.910;2022-11-20T15:38:26;17.50;31.10
21171;DHT22;10743;52.160;20.910;2022-11-20T15:40:52;17.40;31.20
21171;DHT22;10743;52.160;20.910;2022-11-20T15:43:19;17.40;31.20
21171;DHT22;10743;52.160;20.910;2022-11-20T15:45:50;17.40;31.30
21171;DHT22;10743;52.160;20.910;2022-11-20T15:48:32;17.30;31.30
21171;DHT22;10743;52.160;20.910;2022-11-20T15:53:38;17.20;31.40
21171;DHT22;10743;52.160;20.910;2022-11-20T15:56:10;17.20;31.40
21171;DHT22;10743;52.160;20.910;2022-11-20T15:58:39;17.10;31.50
21171;DHT22;10743;52.160;20.910;2022-11-20T16:01:11;17.10;31.50
21171;DHT22;10743;52.160;20.910;2022-11-20T16:03:40;17.10;31.60
21171;DHT22;10743;52.160;20.910;2022-11-20T16:06:08;17.00;31.60
21171;DHT22;10743;52.160;20.910;2022-11-20T16:08:35;17.10;31.60
21171;DHT22;10743;52.160;20.910;2022-11-20T16:11:02;17.00;31.60
21171;DHT22;10743;52.160;20.910;2022-11-20T16:13:31;17.00;31.60
21171;DHT22;10743;52.160;20.910;2022-11-20T16:16:23;17.00;31.70
21171;DHT22;10743;52.160;20.910;2022-11-20T16:18:54;16.90;31.70
21171;DHT22;10743;52.160;20.910;2022-11-20T16:21:21;16.90;31.70
21171;DHT22;10743;52.160;20.910;2022-11-20T16:23:54;16.80;31.70
21171;DHT22;10743;52.160;20.910;2022-11-20T16:26:21;16.80;31.70
21171;DHT22;10743;52.160;20.910;2022-11-20T16:28:48;16.80;31.70
21171;DHT22;10743;52.160;20.910;2022-11-20T16:31:17;16.80;31.80
21171;DHT22;10743;52.160;20.910;2022-11-20T16:33:52;16.70;31.80
21171;DHT22;10743;52.160;20.910;2022-11-20T16:36:22;16.80;31.80
21171;DHT22;10743;52.160;20.910;2022-11-20T16:38:57;16.70;31.70
21171;DHT22;10743;52.160;20.910;2022-11-20T16:41:28;16.70;31.80
21171;DHT22;10743;52.160;20.910;2022-11-20T16:43:58;16.70;31.80
21171;DHT22;10743;52.160;20.910;2022-11-20T16:46:29;16.70;32.00
21171;DHT22;10743;52.160;20.910;2022-11-20T16:51:26;16.60;31.90
21171;DHT22;10743;52.160;20.910;2022-11-20T16:53:54;16.60;31.90
21171;DHT22;10743;52.160;20.910;2022-11-20T16:56:25;16.50;32.00
21171;DHT22;10743;52.160;20.910;2022-11-20T16:58:55;16.50;32.00
21171;DHT22;10743;52.160;20.910;2022-11-20T17:01:24;16.40;32.10
21171;DHT22;10743;52.160;20.910;2022-11-20T17:04:14;16.40;32.20